createdAt,value
2022-10-25T00:01:38.063Z,81.59
2022-10-25T00:04:04.665Z,81.22
2022-10-25T00:06:31.105Z,81.44
2022-10-25T00:08:57.443Z,80.74
2022-10-25T00:11:27.224Z,81.14
2022-10-25T00:13:55.515Z,81.55
2022-10-25T00:16:24.631Z,82.37
2022-10-25T00:18:51.482Z,81.78
2022-10-25T00:21:18.305Z,80.29
2022-10-25T00:23:44.665Z,81.64
2022-10-25T00:26:12.332Z,80.88
2022-10-25T00:28:39.111Z,81.51
2022-10-25T00:31:08.120Z,80.62
2022-10-25T00:33:38.530Z,81.80
2022-10-25T00:36:09.036Z,80.65
2022-10-25T00:38:36.062Z,81.33
2022-10-25T00:41:02.694Z,81.24
2022-10-25T00:43:41.380Z,81.71
2022-10-25T00:46:21.665Z,82.67
2022-10-25T00:48:58.662Z,81.78
2022-10-25T00:51:31.893Z,81.50
2022-10-25T00:53:58.499Z,82.29
2022-10-25T00:56:31.671Z,81.89
2022-10-25T00:59:01.945Z,83.24
2022-10-25T01:01:28.391Z,83.90
2022-10-25T01:03:58.029Z,83.93
2022-10-25T01:06:34.186Z,84.36
2022-10-25T01:09:01.933Z,84.79
2022-10-25T01:11:28.396Z,84.48
2022-10-25T01:13:56.492Z,84.80
2022-10-25T01:16:44.987Z,84.49
2022-10-25T01:19:17.449Z,84.56
2022-10-25T01:21:53.457Z,85.39
2022-10-25T01:24:28.802Z,85.75
2022-10-25T01:27:07.364Z,85.45
2022-10-25T01:29:55.722Z,86.01
2022-10-25T01:32:32.626Z,85.87
2022-10-25T01:35:06.752Z,86.13
2022-10-25T01:38:08.879Z,86.50
2022-10-25T01:41:09.141Z,87.78
2022-10-25T01:43:59.664Z,86.08
2022-10-25T01:46:36.569Z,85.43
2022-10-25T01:49:12.121Z,85.43
2022-10-25T01:51:38.677Z,85.00
2022-10-25T01:54:21.693Z,84.11
2022-10-25T01:57:18.687Z,83.88
2022-10-25T01:59:55.647Z,84.77
2022-10-25T02:02:43.090Z,84.60
2022-10-25T02:05:17.354Z,83.38
2022-10-25T02:07:58.138Z,83.55
2022-10-25T02:10:48.498Z,84.43
2022-10-25T02:13:48.207Z,84.63
2022-10-25T02:16:24.083Z,83.74
2022-10-25T02:18:58.259Z,84.32
2022-10-25T02:21:26.868Z,84.08
2022-10-25T02:23:54.943Z,83.87
2022-10-25T02:26:21.965Z,83.55
2022-10-25T02:28:49.133Z,83.95
2022-10-25T02:31:17.633Z,83.35
2022-10-25T02:33:47.762Z,83.12
2022-10-25T02:36:22.748Z,83.36
2022-10-25T02:38:51.125Z,83.41
2022-10-25T02:41:19.019Z,81.99
2022-10-25T02:43:45.481Z,81.68
2022-10-25T02:46:15.112Z,81.88
2022-10-25T02:48:42.211Z,81.90
2022-10-25T02:51:10.313Z,82.39
2022-10-25T02:53:37.618Z,82.55
2022-10-25T02:56:12.916Z,82.07
2022-10-25T02:58:40.626Z,83.02
2022-10-25T03:01:08.378Z,83.77
2022-10-25T03:03:35.338Z,83.65
2022-10-25T03:06:02.095Z,85.18
2022-10-25T03:11:00.423Z,86.28
2022-10-25T03:13:27.027Z,86.82
2022-10-25T03:15:53.340Z,87.49
2022-10-25T03:18:19.783Z,87.89
2022-10-25T03:20:46.157Z,87.82
2022-10-25T03:23:12.649Z,88.08
2022-10-25T03:25:39.012Z,88.78
2022-10-25T03:28:05.516Z,89.15
2022-10-25T03:30:31.941Z,88.92
2022-10-25T03:32:58.625Z,89.49
2022-10-25T03:35:26.540Z,88.77
2022-10-25T03:37:53.640Z,88.96
2022-10-25T03:40:20.968Z,89.05
2022-10-25T03:42:47.351Z,88.40
2022-10-25T03:45:13.735Z,88.57
2022-10-25T03:47:40.314Z,88.79
2022-10-25T03:50:07.302Z,89.16
2022-10-25T03:52:33.707Z,88.92
2022-10-25T03:55:00.013Z,88.65
2022-10-25T03:57:26.348Z,87.63
2022-10-25T03:59:52.704Z,87.45
2022-10-25T04:02:19.051Z,87.44
2022-10-25T04:04:45.370Z,86.59
2022-10-25T04:07:11.692Z,87.18
2022-10-25T04:09:38.030Z,85.88
2022-10-25T04:12:04.671Z,86.57
2022-10-25T04:14:31.116Z,84.61
2022-10-25T04:16:57.587Z,84.72
2022-10-25T04:19:23.947Z,85.29
2022-10-25T04:21:50.235Z,84.78
2022-10-25T04:24:16.588Z,83.57
2022-10-25T04:26:43.018Z,84.45
2022-10-25T04:29:11.533Z,84.81
2022-10-25T04:31:37.841Z,83.66
2022-10-25T04:34:04.301Z,83.50
2022-10-25T04:36:30.861Z,83.73
2022-10-25T04:38:57.189Z,84.61
2022-10-25T04:41:23.759Z,83.74
2022-10-25T04:43:51.446Z,84.58
2022-10-25T04:46:18.909Z,84.97
2022-10-25T04:48:45.259Z,85.30
2022-10-25T04:51:12.685Z,85.77
2022-10-25T04:53:39.075Z,84.11
2022-10-25T04:56:08.426Z,84.74
2022-10-25T04:58:35.449Z,84.95
2022-10-25T05:01:04.774Z,84.78
2022-10-25T05:03:31.498Z,85.08
2022-10-25T05:06:20.629Z,85.93
2022-10-25T05:08:49.550Z,84.69
2022-10-25T05:11:20.166Z,84.94
2022-10-25T05:13:47.029Z,85.54
2022-10-25T05:16:17.764Z,85.33
2022-10-25T05:18:47.048Z,84.78
2022-10-25T05:21:14.111Z,84.31
2022-10-25T05:23:40.942Z,85.06
2022-10-25T05:26:13.082Z,85.22
2022-10-25T05:28:41.329Z,84.39
2022-10-25T05:31:19.047Z,83.96
2022-10-25T05:33:46.369Z,84.91
2022-10-25T05:36:14.004Z,84.64
2022-10-25T05:38:40.911Z,85.64
2022-10-25T05:41:08.390Z,85.90
2022-10-25T05:43:34.794Z,85.80
2022-10-25T05:46:05.781Z,85.92
2022-10-25T05:48:34.008Z,85.35
2022-10-25T05:51:39.036Z,85.49
2022-10-25T05:54:15.661Z,85.67
2022-10-25T05:56:43.178Z,85.46
2022-10-25T05:59:11.631Z,85.51
2022-10-25T06:01:44.088Z,84.90
2022-10-25T06:04:10.979Z,84.97
2022-10-25T06:06:38.846Z,85.20
2022-10-25T06:09:06.723Z,83.89
2022-10-25T06:11:33.983Z,83.84
2022-10-25T06:14:00.462Z,84.70
2022-10-25T06:16:26.960Z,83.29
2022-10-25T06:18:53.998Z,83.58
2022-10-25T06:21:23.333Z,83.10
2022-10-25T06:23:50.199Z,84.52
2022-10-25T06:26:19.384Z,83.18
2022-10-25T06:28:45.776Z,82.99
2022-10-25T06:31:14.662Z,83.61
2022-10-25T06:33:41.885Z,82.84
2022-10-25T06:36:13.368Z,82.42
2022-10-25T06:38:39.763Z,83.12
2022-10-25T06:41:09.639Z,82.71
2022-10-25T06:43:35.970Z,82.77
2022-10-25T06:46:40.525Z,83.13
2022-10-25T06:49:18.868Z,84.00
2022-10-25T06:51:45.186Z,84.01
2022-10-25T06:54:11.498Z,84.03
2022-10-25T06:56:37.881Z,84.13
2022-10-25T06:59:07.034Z,83.70
2022-10-25T07:01:33.522Z,84.05
2022-10-25T07:03:59.959Z,83.18
2022-10-25T07:06:29.546Z,84.07
2022-10-25T07:08:58.719Z,85.29
2022-10-25T07:11:26.809Z,85.01
2022-10-25T07:13:53.208Z,85.45
2022-10-25T07:16:21.240Z,85.90
2022-10-25T07:18:48.426Z,85.66
2022-10-25T07:21:20.799Z,86.79
2022-10-25T07:23:47.869Z,86.00
2022-10-25T07:26:26.722Z,86.63
2022-10-25T07:28:55.452Z,87.59
2022-10-25T07:31:24.423Z,88.39
2022-10-25T07:33:52.382Z,88.51
2022-10-25T07:36:19.385Z,87.58
2022-10-25T07:38:46.247Z,87.61
2022-10-25T07:41:12.910Z,86.90
2022-10-25T07:43:39.286Z,86.89
2022-10-25T07:46:06.477Z,88.20
2022-10-25T07:48:34.014Z,87.56
2022-10-25T07:51:10.046Z,88.43
2022-10-25T07:53:36.414Z,88.29
2022-10-25T07:56:03.255Z,87.61
2022-10-25T07:58:29.611Z,87.13
2022-10-25T08:01:07.865Z,87.98
2022-10-25T08:03:34.841Z,86.71
2022-10-25T08:06:01.269Z,86.60
2022-10-25T08:08:28.658Z,86.38
2022-10-25T08:10:55.689Z,84.73
2022-10-25T08:13:22.589Z,86.87
2022-10-25T08:15:50.881Z,85.05
2022-10-25T08:18:17.362Z,86.37
2022-10-25T08:21:01.319Z,84.92
2022-10-25T08:23:29.071Z,85.77
2022-10-25T08:25:55.459Z,84.80
2022-10-25T08:28:21.904Z,85.61
2022-10-25T08:30:48.270Z,86.22
2022-10-25T08:33:14.674Z,85.12
2022-10-25T08:35:41.013Z,83.65
2022-10-25T08:38:07.398Z,83.73
2022-10-25T08:40:56.980Z,84.59
2022-10-25T08:43:33.010Z,84.48
2022-10-25T08:46:21.721Z,84.24
2022-10-25T08:48:56.818Z,84.41
2022-10-25T08:51:34.437Z,84.37
2022-10-25T08:54:05.597Z,85.01
2022-10-25T08:56:32.957Z,85.40
2022-10-25T08:59:02.572Z,85.40
2022-10-25T09:01:36.370Z,83.70
2022-10-25T09:04:02.841Z,85.42
2022-10-25T09:06:43.084Z,84.62
2022-10-25T09:09:19.356Z,83.92
2022-10-25T09:11:54.394Z,84.90
2022-10-25T09:14:46.610Z,84.19
2022-10-25T09:17:21.344Z,85.69
2022-10-25T09:20:04.970Z,85.94
2022-10-25T09:22:47.663Z,85.06
2022-10-25T09:25:26.520Z,84.51
2022-10-25T09:28:00.278Z,84.74
2022-10-25T09:30:29.870Z,85.21
2022-10-25T09:33:01.364Z,84.88
2022-10-25T09:35:33.215Z,84.00
2022-10-25T09:37:59.425Z,84.85
2022-10-25T09:40:30.063Z,85.33
2022-10-25T09:43:01.719Z,84.69
2022-10-25T09:45:28.017Z,85.76
2022-10-25T09:48:10.920Z,84.65
2022-10-25T09:50:47.685Z,82.16
2022-10-25T09:53:19.084Z,82.80
2022-10-25T09:55:49.584Z,83.84
2022-10-25T09:58:30.510Z,83.19
2022-10-25T10:01:01.841Z,83.55
2022-10-25T10:03:30.798Z,84.10
2022-10-25T10:06:01.930Z,82.78
2022-10-25T10:08:31.707Z,84.18
2022-10-25T10:10:59.317Z,83.24
2022-10-25T10:13:44.681Z,82.62
2022-10-25T10:16:35.453Z,82.96
2022-10-25T10:19:22.803Z,82.97
2022-10-25T10:21:49.111Z,83.07
2022-10-25T10:24:34.668Z,82.95
2022-10-25T10:27:05.436Z,82.66
2022-10-25T10:29:34.986Z,80.93
2022-10-25T10:32:06.418Z,81.58
2022-10-25T10:34:43.862Z,80.79
2022-10-25T10:37:15.015Z,81.33
2022-10-25T10:39:49.513Z,83.19
2022-10-25T10:42:19.003Z,83.05
2022-10-25T10:45:01.875Z,83.22
2022-10-25T10:47:33.467Z,83.51
2022-10-25T10:50:00.616Z,83.61
2022-10-25T10:52:30.949Z,85.05
2022-10-25T10:54:58.856Z,86.70
2022-10-25T10:57:32.292Z,85.22
2022-10-25T11:00:00.761Z,85.85
2022-10-25T11:02:41.675Z,86.25
2022-10-25T11:05:26.880Z,85.88
2022-10-25T11:08:20.008Z,87.26
2022-10-25T11:10:46.348Z,87.01
2022-10-25T11:13:20.451Z,86.04
2022-10-25T11:16:12.956Z,85.21
2022-10-25T11:18:55.885Z,86.41
2022-10-25T11:21:40.546Z,86.36
2022-10-25T11:24:07.091Z,86.06
2022-10-25T11:26:49.658Z,86.18
2022-10-25T11:29:34.787Z,85.17
2022-10-25T11:32:43.790Z,86.56
2022-10-25T11:36:03.992Z,86.02
2022-10-25T11:38:49.150Z,87.98
2022-10-25T11:41:45.380Z,87.05
2022-10-25T11:44:45.673Z,87.29
2022-10-25T11:47:32.756Z,88.62
2022-10-25T11:50:25.862Z,87.40
2022-10-25T11:53:27.347Z,87.43
2022-10-25T11:56:12.214Z,87.39
2022-10-25T11:59:14.346Z,88.02
2022-10-25T12:01:41.216Z,88.50
2022-10-25T12:04:46.137Z,87.77
2022-10-25T12:07:33.901Z,88.24
2022-10-25T12:10:18.198Z,87.15
2022-10-25T12:12:49.157Z,86.25
2022-10-25T12:15:27.543Z,85.43
2022-10-25T12:17:54.079Z,85.22
2022-10-25T12:20:25.786Z,84.06
2022-10-25T12:22:53.672Z,83.89
2022-10-25T12:25:26.213Z,83.19
2022-10-25T12:28:06.553Z,84.95
2022-10-25T12:30:34.422Z,84.28
2022-10-25T12:33:15.344Z,83.99
2022-10-25T12:35:50.055Z,83.08
2022-10-25T12:38:37.789Z,83.43
2022-10-25T12:41:16.899Z,83.41
2022-10-25T12:43:45.972Z,83.71
2022-10-25T12:46:40.206Z,83.65
2022-10-25T12:49:27.370Z,84.23
2022-10-25T12:52:14.707Z,82.77
2022-10-25T12:55:00.307Z,81.97
2022-10-25T12:57:36.437Z,81.42
2022-10-25T13:00:18.193Z,79.93
2022-10-25T13:03:22.532Z,80.25
2022-10-25T13:06:47.588Z,80.68
2022-10-25T13:09:16.570Z,80.77
2022-10-25T13:12:02.895Z,80.25
2022-10-25T13:14:38.819Z,78.82
2022-10-25T13:17:40.456Z,78.61
2022-10-25T13:22:50.475Z,80.69
2022-10-25T13:25:38.437Z,80.60
2022-10-25T13:28:10.728Z,79.05
2022-10-25T13:30:37.127Z,80.12
2022-10-25T13:33:23.991Z,80.67
2022-10-25T13:35:50.509Z,78.83
2022-10-25T13:38:23.028Z,79.37
2022-10-25T13:41:07.718Z,79.46
2022-10-25T13:43:35.822Z,80.05
2022-10-25T13:46:02.712Z,79.94
2022-10-25T13:48:34.862Z,80.71
2022-10-25T13:51:09.109Z,80.48
2022-10-25T13:53:42.245Z,79.98
2022-10-25T13:56:33.674Z,79.35
2022-10-25T13:59:01.260Z,79.83
2022-10-25T14:01:27.639Z,80.17
2022-10-25T14:04:08.693Z,78.60
2022-10-25T14:06:42.377Z,78.08
2022-10-25T14:09:34.408Z,77.95
2022-10-25T14:12:00.695Z,76.47
2022-10-25T14:14:30.052Z,76.48
2022-10-25T14:17:16.369Z,76.18
2022-10-25T14:19:47.299Z,76.59
2022-10-25T14:22:23.063Z,76.24
2022-10-25T14:24:54.062Z,77.04
2022-10-25T14:27:26.549Z,76.59
2022-10-25T14:29:52.906Z,78.37
2022-10-25T14:32:21.883Z,78.07
2022-10-25T14:34:50.957Z,78.46
2022-10-25T14:37:17.345Z,78.35
2022-10-25T14:39:53.133Z,79.25
2022-10-25T14:42:19.550Z,78.88
2022-10-25T14:44:49.031Z,79.37
2022-10-25T14:47:29.665Z,79.38
2022-10-25T14:49:58.044Z,78.97
2022-10-25T14:52:26.287Z,78.41
2022-10-25T14:54:57.477Z,79.53
2022-10-25T14:57:25.887Z,78.67
2022-10-25T15:02:39.770Z,81.74
2022-10-25T15:05:06.982Z,81.64
2022-10-25T15:07:39.685Z,81.16
2022-10-25T15:10:07.590Z,81.24
2022-10-25T15:12:34.910Z,80.20
2022-10-25T15:15:25.844Z,79.55
2022-10-25T15:17:53.245Z,79.48
2022-10-25T15:20:19.903Z,80.76
2022-10-25T15:22:49.409Z,80.11
2022-10-25T15:25:22.161Z,80.02
2022-10-25T15:27:54.767Z,80.11
2022-10-25T15:30:39.650Z,80.79
2022-10-25T15:33:28.138Z,81.92
2022-10-25T15:35:57.537Z,82.58
2022-10-25T15:39:05.344Z,82.84
2022-10-25T15:41:21.935Z,81.61
2022-10-25T15:43:48.342Z,81.71
2022-10-25T15:46:24.649Z,81.76
2022-10-25T15:48:51.387Z,81.18
2022-10-25T15:51:17.850Z,80.80
2022-10-25T15:53:44.198Z,81.96
2022-10-25T15:56:15.910Z,81.21
2022-10-25T15:58:42.338Z,81.12
2022-10-25T16:01:09.317Z,79.35
2022-10-25T16:03:35.859Z,79.24
2022-10-25T16:06:02.204Z,79.80
2022-10-25T16:08:28.577Z,80.24
2022-10-25T16:10:55.260Z,80.35
2022-10-25T16:13:37.769Z,80.16
2022-10-25T16:16:11.771Z,79.37
2022-10-25T16:18:48.713Z,80.07
2022-10-25T16:21:15.081Z,79.83
2022-10-25T16:23:41.436Z,79.98
2022-10-25T16:26:31.407Z,81.09
2022-10-25T16:28:57.850Z,81.23
2022-10-25T16:31:24.363Z,79.71
2022-10-25T16:33:50.748Z,79.67
2022-10-25T16:36:17.077Z,81.08
2022-10-25T16:38:43.441Z,80.04
2022-10-25T16:41:29.287Z,79.74
2022-10-25T16:43:57.296Z,80.74
2022-10-25T16:46:24.712Z,81.23
2022-10-25T16:48:51.895Z,80.61
2022-10-25T16:51:19.509Z,79.39
2022-10-25T16:53:47.997Z,80.91
2022-10-25T16:56:15.028Z,81.47
2022-10-25T16:58:42.098Z,81.04
2022-10-25T17:01:28.961Z,82.76
2022-10-25T17:03:55.547Z,82.15
2022-10-25T17:06:40.259Z,82.33
2022-10-25T17:09:07.528Z,83.93
2022-10-25T17:11:33.914Z,82.68
2022-10-25T17:14:00.249Z,83.98
2022-10-25T17:16:26.679Z,84.55
2022-10-25T17:18:53.052Z,84.60
2022-10-25T17:21:19.548Z,84.59
2022-10-25T17:23:45.911Z,84.59
2022-10-25T17:26:12.396Z,84.59
2022-10-25T17:28:43.133Z,83.87
2022-10-25T17:31:12.481Z,83.05
2022-10-25T17:33:38.945Z,83.85
2022-10-25T17:36:10.938Z,83.33
2022-10-25T17:38:37.562Z,83.10
2022-10-25T17:41:04.333Z,83.73
2022-10-25T17:43:30.905Z,82.87
2022-10-25T17:46:02.177Z,83.03
2022-10-25T17:48:29.394Z,82.54
2022-10-25T17:51:23.514Z,81.55
2022-10-25T17:53:54.312Z,81.47
2022-10-25T17:56:21.971Z,81.17
2022-10-25T17:58:49.199Z,81.78
2022-10-25T18:01:21.217Z,80.04
2022-10-25T18:03:48.039Z,80.62
2022-10-25T18:06:17.645Z,79.95
2022-10-25T18:08:45.387Z,80.90
2022-10-25T18:11:22.332Z,81.01
2022-10-25T18:13:52.942Z,79.25
2022-10-25T18:16:21.754Z,79.73
2022-10-25T18:18:48.844Z,79.64
2022-10-25T18:21:15.671Z,79.48
2022-10-25T18:23:42.519Z,79.70
2022-10-25T18:26:11.177Z,78.36
2022-10-25T18:28:37.757Z,79.32
2022-10-25T18:31:07.097Z,78.72
2022-10-25T18:33:35.959Z,78.67
2022-10-25T18:36:07.984Z,78.09
2022-10-25T18:38:34.646Z,78.17
2022-10-25T18:41:06.055Z,77.84
2022-10-25T18:43:32.741Z,78.26
2022-10-25T18:45:59.512Z,76.97
2022-10-25T18:48:26.758Z,78.17
2022-10-25T18:50:53.471Z,78.25
2022-10-25T18:53:20.585Z,77.30
2022-10-25T18:55:48.916Z,78.23
2022-10-25T18:58:15.393Z,78.21
2022-10-25T19:00:43.645Z,77.89
2022-10-25T19:03:14.892Z,76.39
2022-10-25T19:05:42.877Z,77.42
2022-10-25T19:08:10.809Z,77.05
2022-10-25T19:10:41.294Z,77.04
2022-10-25T19:13:18.674Z,77.28
2022-10-25T19:15:48.468Z,77.71
2022-10-25T19:18:15.557Z,76.39
2022-10-25T19:20:46.281Z,76.83
2022-10-25T19:23:13.068Z,77.34
2022-10-25T19:25:39.460Z,76.91
2022-10-25T19:28:05.801Z,76.35
2022-10-25T19:30:37.574Z,77.34
2022-10-25T19:33:04.792Z,76.27
2022-10-25T19:35:31.373Z,76.04
2022-10-25T19:37:57.915Z,75.96
2022-10-25T19:40:24.621Z,76.19
2022-10-25T19:42:51.302Z,76.02
2022-10-25T19:45:18.074Z,76.25
2022-10-25T19:47:45.827Z,75.92
2022-10-25T19:50:12.415Z,75.55
2022-10-25T19:52:39.255Z,75.24
2022-10-25T19:55:06.853Z,76.07
2022-10-25T19:57:34.394Z,75.54
2022-10-25T20:00:01.392Z,75.10
2022-10-25T20:02:27.965Z,75.58
2022-10-25T20:04:54.431Z,75.34
2022-10-25T20:07:20.812Z,75.18
2022-10-25T20:09:47.191Z,75.19
2022-10-25T20:12:13.623Z,74.92
2022-10-25T20:14:40.123Z,74.17
2022-10-25T20:17:06.754Z,75.02
2022-10-25T20:19:33.108Z,74.51
2022-10-25T20:21:59.509Z,74.27
2022-10-25T20:24:26.274Z,73.96
2022-10-25T20:26:53.230Z,74.60
2022-10-25T20:29:22.980Z,74.51
2022-10-25T20:31:51.375Z,74.10
2022-10-25T20:34:19.473Z,73.67
2022-10-25T20:36:47.516Z,74.23
2022-10-25T20:39:14.814Z,74.29
2022-10-25T20:41:41.379Z,74.71
2022-10-25T20:44:09.550Z,74.55
2022-10-25T20:46:36.002Z,75.03
2022-10-25T20:49:03.397Z,74.93
2022-10-25T20:51:29.973Z,75.45
2022-10-25T20:53:56.941Z,75.50
2022-10-25T20:56:24.043Z,76.27
2022-10-25T20:58:51.225Z,76.05
2022-10-25T21:01:18.118Z,76.57
2022-10-25T21:03:44.543Z,76.00
2022-10-25T21:06:12.284Z,77.38
2022-10-25T21:08:39.375Z,77.83
2022-10-25T21:11:09.189Z,77.95
2022-10-25T21:13:36.770Z,77.96
2022-10-25T21:16:14.132Z,78.37
2022-10-25T21:18:41.933Z,78.40
2022-10-25T21:21:17.689Z,78.91
2022-10-25T21:23:44.935Z,78.95
2022-10-25T21:26:11.524Z,78.63
2022-10-25T21:28:39.999Z,78.05
2022-10-25T21:31:12.192Z,78.01
2022-10-25T21:33:39.442Z,78.02
2022-10-25T21:36:08.751Z,77.49
2022-10-25T21:38:35.374Z,78.33
2022-10-25T21:41:06.397Z,77.65
2022-10-25T21:43:32.712Z,76.96
2022-10-25T21:45:59.186Z,78.22
2022-10-25T21:48:25.607Z,76.36
2022-10-25T21:50:55.393Z,76.85
2022-10-25T21:53:22.311Z,76.39
2022-10-25T21:55:48.623Z,75.75
2022-10-25T21:58:14.917Z,75.74
2022-10-25T22:00:44.251Z,76.64
2022-10-25T22:03:10.535Z,75.63
2022-10-25T22:05:42.397Z,77.67
2022-10-25T22:08:08.729Z,76.40
2022-10-25T22:10:35.056Z,77.01
2022-10-25T22:13:01.381Z,76.23
2022-10-25T22:15:27.760Z,75.39
2022-10-25T22:17:54.061Z,75.60
2022-10-25T22:20:20.575Z,76.41
2022-10-25T22:22:47.235Z,75.18
2022-10-25T22:25:13.725Z,75.94
2022-10-25T22:27:40.073Z,74.37
2022-10-25T22:30:07.068Z,74.75
2022-10-25T22:32:33.354Z,74.91
2022-10-25T22:34:59.654Z,74.82
2022-10-25T22:37:25.992Z,75.56
2022-10-25T22:39:52.298Z,74.11
2022-10-25T22:42:18.621Z,75.23
2022-10-25T22:44:45.002Z,74.54
2022-10-25T22:47:11.330Z,76.02
2022-10-25T22:49:37.642Z,76.33
2022-10-25T22:52:04.197Z,76.25
2022-10-25T22:54:30.484Z,76.69
2022-10-25T22:56:57.162Z,76.32
2022-10-25T22:59:23.505Z,77.05
2022-10-25T23:01:49.838Z,75.96
2022-10-25T23:04:16.379Z,77.37
2022-10-25T23:06:42.785Z,75.49
2022-10-25T23:09:10.467Z,76.40
2022-10-25T23:11:38.645Z,76.79
2022-10-25T23:14:05.435Z,78.11
2022-10-25T23:16:32.084Z,77.87
2022-10-25T23:18:58.850Z,76.96
2022-10-25T23:21:27.223Z,78.52
2022-10-25T23:23:55.791Z,78.01
2022-10-25T23:26:24.884Z,77.43
2022-10-25T23:28:51.402Z,77.58
2022-10-25T23:31:18.153Z,78.76
2022-10-25T23:33:45.203Z,78.90
2022-10-25T23:36:17.083Z,78.00
2022-10-25T23:38:44.021Z,78.98
2022-10-25T23:41:10.680Z,79.17
2022-10-25T23:43:37.266Z,77.93
2022-10-25T23:46:04.471Z,77.33
2022-10-25T23:48:31.072Z,76.81
2022-10-25T23:51:02.948Z,77.36
2022-10-25T23:53:29.666Z,75.97
2022-10-25T23:55:56.268Z,76.20
2022-10-25T23:58:23.094Z,76.14
